Cumby, Texas
Current Conditions -  °F | °C
As of 7:55 PM on Monday 20 Oct 2014 (Local Time) from KSLR Reporting Station
NA  
Wind Chill: 21°   Ceiling: NA
Heat Index: 21°   Visibility: 10mi
Dew Point: 16°   Wind: 5mph
Humidity: 73%   Direction: 130°SE
Pressure: 30.06"   Gusts: NA
Location:  33.14°N, 95.84°W
Report Text: KSLR 210055Z AUTO 13004KT 10SM 21/16 A3006 RMK AO2 T02070158
Loading
Personal Weather Stations






























Interactive Weather Map
Tropical Storm Tracking
New forecast layout! Learn more

10-Day Weather Forecast

Advertisements
Track Severe Weather on mobile